Flight Track Log - Related Links

Times and Time Zones

All times are in EDT time to prevent confusion due to time zone crossing. See the UAL619 flight status page for this flight to view local times or setup timezone preferences in your user account.

Time Position Orientation Groundspeed Altitude Reporting Facility
EDT Latitude Longitude Course Direction KTS MPH feet Rate Location/Type
Sat 11:08:56 AM 37.4000 -121.9667 63° Northeast 201 231 2,000  Level Northern Cal TRACON
Sat 11:10:00 AM 37.5770 -121.9500 North  Level FlightAware Approximate
Sat 11:10:02 AM 37.4500 -121.9667 360° North 230 265 5,000  Level Northern Cal TRACON
Sat 11:10:56 AM 37.4167 -121.9000 122° Southeast 248 285 5,000 596 Level Northern Cal TRACON
Sat 11:11:00 AM 37.6884 -121.9735 354° North  Level FlightAware Approximate
Sat 11:12:00 AM 37.8010 -121.9782 76° East  Level FlightAware Approximate
Sat 11:12:23 AM 37.3500 -121.8122 134° Southeast 253 291 6,400  Level Oakland Center
Sat 11:13:00 AM 37.8296 -121.8355 76° East  Level FlightAware Approximate
Sat 11:13:24 AM 37.2833 -121.7581 147° Southeast 285 328 9,600  Level Oakland Center
Sat 11:14:00 AM 37.8676 -121.6977 63° Northeast  Level FlightAware Approximate
Sat 11:14:25 AM 37.2517 -121.8378 243° Southwest 297 342 11,900  Level Oakland Center
Sat 11:15:26 AM 37.3219 -121.9042 323° Northwest 323 372 14,300 2,331 Climbing Oakland Center
Sat 11:16:26 AM 37.4083 -121.9472 338° Northwest 340 391 16,600 2,033 Climbing Oakland Center
Sat 11:17:27 AM 37.5097 -121.9225 11° North 386 444 18,400 2,213 Climbing Oakland Center
Sat 11:18:28 AM 37.5822 -121.8133 50° Northeast 405 466 21,100 2,115 Climbing Oakland Center
Sat 11:19:29 AM 37.6536 -121.6972 52° Northeast 419 482 22,700 1,721 Climbing Oakland Center
Sat 11:20:30 AM 37.7289 -121.5764 52° Northeast 435 501 24,600 1,672 Climbing Oakland Center
Sat 11:21:31 AM 37.8050 -121.4517 52° Northeast 446 513 26,100 1,328 Climbing Oakland Center
Sat 11:22:32 AM 37.8839 -121.3231 52° Northeast 456 525 27,300 1,525 Climbing Oakland Center
Sat 11:23:33 AM 37.9817 -121.1600 53° Northeast 478 550 29,200 2,066 Climbing Oakland Center
Sat 11:24:34 AM 38.0361 -121.0042 66° East 493 567 31,500 1,934 Climbing Oakland Center
Sat 11:25:34 AM 38.0672 -120.8392 76° East 484 557 33,100 1,537 Climbing Oakland Center
Sat 11:26:35 AM 38.0975 -120.6722 77° East 487 560 34,600 1,475 Climbing Oakland Center
Sat 11:27:36 AM 38.1275 -120.5089 77° East 479 551 36,100 1,180 Climbing Oakland Center
Sat 11:28:37 AM 38.1575 -120.3464 77° East 475 547 37,000 443 Climbing Oakland Center
Sat 11:29:38 AM 38.1883 -120.1831 76° East 475 547 37,000  Level Oakland Center
Sat 11:30:39 AM 38.2175 -120.0194 77° East 477 549 37,000  Level Oakland Center
Sat 11:31:40 AM 38.2483 -119.8525 77° East 484 557 37,000  Level Oakland Center
Sat 11:32:41 AM 38.2772 -119.6856 78° East 485 558 37,000  Level Oakland Center
Sat 11:33:42 AM 38.3067 -119.5183 77° East 485 558 37,000  Level Oakland Center
Sat 11:34:43 AM 38.3394 -119.3250 78° East 489 563 37,000  Level Oakland Center
Sat 11:35:44 AM 38.3683 -119.1572 78° East 488 562 37,000  Level Oakland Center
Sat 11:36:45 AM 38.3975 -118.9886 78° East 490 564 37,000  Level Oakland Center
Sat 11:37:46 AM 38.4253 -118.8192 78° East 491 565 37,000  Level Oakland Center
Sat 11:38:47 AM 38.4536 -118.6483 78° East 494 568 37,000  Level Oakland Center
Sat 11:39:48 AM 38.4814 -118.4789 78° East 492 566 37,000  Level Oakland Center
Sat 11:40:49 AM 38.5097 -118.3111 78° East 488 562 37,000  Level Oakland Center
Sat 11:41:50 AM 38.5375 -118.1417 78° East 490 564 37,000  Level Oakland Center
Sat 11:42:51 AM 38.5658 -117.9661 78° East 492 566 37,000  Level Oakland Center
Sat 11:43:52 AM 38.5928 -117.7939 79° East 492 566 37,000  Level Oakland Center
Sat 11:44:53 AM 38.6200 -117.6206 79° East 494 568 37,000  Level Oakland Center
Sat 11:45:54 AM 38.6519 -117.4142 79° East 491 565 37,000  Level Oakland Center
Sat 11:46:55 AM 38.6786 -117.2411 79° East 492 566 37,000  Level Oakland Center
Sat 11:47:14 AM 38.6831 -117.2058 81° East 493 567 37,000  Level Salt Lake Center
Sat 11:47:56 AM 38.7058 -117.0667 78° East 495 570 37,000  Level Oakland Center
Sat 11:48:57 AM 38.7339 -116.8928 78° East 496 571 37,000  Level Oakland Center
Sat 11:49:17 AM 38.7400 -116.8581 77° East 496 571 37,000  Level Salt Lake Center
Sat 11:50:18 AM 38.7739 -116.6881 76° East 493 567 37,000  Level Salt Lake Center
Sat 11:51:20 AM 38.8067 -116.5161 76° East 493 567 37,000  Level Salt Lake Center
Sat 11:52:01 AM 38.8322 -116.3775 77° East 496 571 37,000  Level Oakland Center
Sat 11:52:21 AM 38.8442 -116.3092 77° East 496 571 37,000  Level Salt Lake Center
Sat 11:53:23 AM 38.8758 -116.1347 77° East 500 575 37,000  Level Salt Lake Center
Sat 11:54:24 AM 38.9078 -115.9617 77° East 498 573 37,000  Level Salt Lake Center
Sat 11:55:26 AM 38.9397 -115.7867 77° East 502 578 37,000  Level Salt Lake Center
Sat 11:56:27 AM 38.9711 -115.6125 77° East 501 577 37,000  Level Salt Lake Center
Sat 11:57:29 AM 39.0017 -115.4381 77° East 501 577 37,000  Level Salt Lake Center
Sat 11:58:30 AM 39.0325 -115.2669 77° East 503 579 37,000  Level Salt Lake Center
Sat 11:59:32 AM 39.0633 -115.0906 77° East 505 581 37,000  Level Salt Lake Center
Sat 12:00:34 PM 39.1000 -114.8794 77° East 504 580 37,000  Level Salt Lake Center
Sat 12:01:35 PM 39.1300 -114.7050 77° East 502 578 37,000  Level Salt Lake Center
Sat 12:02:37 PM 39.1608 -114.5256 77° East 510 587 37,000  Level Salt Lake Center
Sat 12:03:38 PM 39.1892 -114.3478 78° East 508 585 37,000  Level Salt Lake Center
Sat 12:04:40 PM 39.2186 -114.1714 78° East 505 581 37,000  Level Salt Lake Center
Sat 12:05:41 PM 39.2494 -113.9939 77° East 506 582 37,000  Level Salt Lake Center
Sat 12:06:43 PM 39.2769 -113.8150 79° East 508 585 37,000  Level Salt Lake Center
Sat 12:07:44 PM 39.3056 -113.6367 78° East 508 585 37,000  Level Salt Lake Center
Sat 12:08:46 PM 39.3342 -113.4578 78° East 508 585 37,000  Level Salt Lake Center
Sat 12:09:47 PM 39.3672 -113.2428 79° East 508 585 37,000  Level Salt Lake Center
Sat 12:10:49 PM 39.3958 -113.0642 78° East 508 585 37,000  Level Salt Lake Center
Sat 12:11:50 PM 39.4233 -112.8858 79° East 508 585 37,000  Level Salt Lake Center
Sat 12:13:00 PM 39.4424 -112.7065 79° East  Level FlightAware Approximate
Sat 12:13:53 PM 39.4769 -112.5406 79° East 506 582 37,000  Level Salt Lake Center
Sat 12:14:55 PM 39.5086 -112.3242 79° East 512 589 37,000  Level Salt Lake Center
Sat 12:15:56 PM 39.5356 -112.1442 79° East 513 590 37,000  Level Salt Lake Center
Sat 12:16:58 PM 39.5614 -111.9656 79° East 511 588 37,000  Level Salt Lake Center
Sat 12:17:59 PM 39.5872 -111.7858 79° East 510 587 37,000  Level Salt Lake Center
Sat 12:19:01 PM 39.6128 -111.6064 79° East 510 587 37,000  Level Salt Lake Center
Sat 12:20:02 PM 39.6378 -111.4275 80° East 508 585 37,000  Level Salt Lake Center
Sat 12:21:04 PM 39.6631 -111.2406 80° East 511 588 37,000  Level Salt Lake Center
Sat 12:22:07 PM 39.6900 -111.0364 80° East 514 592 37,000  Level Salt Lake Center
Sat 12:23:06 PM 39.7136 -110.8625 80° East 511 588 37,000  Level Salt Lake Center
Sat 12:24:08 PM 39.7411 -110.6589 80° East 514 592 37,000  Level Salt Lake Center
Sat 12:25:09 PM 39.7636 -110.4847 80° East 511 588 37,000  Level Salt Lake Center
Sat 12:26:11 PM 39.7858 -110.3100 81° East 511 588 37,000  Level Salt Lake Center
Sat 12:27:12 PM 39.8122 -110.1064 80° East 511 588 37,000  Level Salt Lake Center
Sat 12:28:13 PM 39.8339 -109.9311 81° East 512 589 37,000  Level Salt Lake Center
Sat 12:29:15 PM 39.8558 -109.7558 81° East 512 589 37,000  Level Salt Lake Center
Sat 12:30:16 PM 39.8811 -109.5497 81° East 515 593 37,000  Level Salt Lake Center
Sat 12:30:32 PM 39.8883 -109.4894 81° East 514 592 37,000  Level Denver Center
Sat 12:31:34 PM 39.9097 -109.3122 81° East 515 593 37,000  Level Denver Center
Sat 12:32:36 PM 39.9314 -109.1339 81° East 518 596 37,000  Level Denver Center
Sat 12:33:21 PM 39.9489 -108.9869 81° East 517 595 37,000  Level Salt Lake Center
Sat 12:34:22 PM 39.9694 -108.8092 81° East 515 593 37,000  Level Salt Lake Center
Sat 12:34:40 PM 39.9758 -108.7492 82° East 511 588 37,000  Level Denver Center
Sat 12:35:42 PM 39.9997 -108.5419 81° East 513 590 37,000  Level Denver Center
Sat 12:36:44 PM 40.0194 -108.3636 82° East 515 593 37,000  Level Denver Center
Sat 12:37:46 PM 40.0394 -108.1850 82° East 517 595 37,000  Level Denver Center
Sat 12:38:48 PM 40.0614 -107.9789 82° East 515 593 37,000  Level Denver Center
Sat 12:39:50 PM 40.0961 -107.8089 75° East 508 585 37,000  Level Denver Center
Sat 12:40:52 PM 40.1314 -107.6072 77° East 508 585 37,000  Level Denver Center
Sat 12:41:54 PM 40.1639 -107.4361 76° East 508 585 37,000 -48 Level Denver Center
Sat 12:42:56 PM 40.2031 -107.2386 75° East 504 580 36,900 -726 Descending Denver Center
Sat 12:43:58 PM 40.2228 -107.0633 82° East 508 585 35,500 -1,645 Descending Denver Center
Sat 12:45:00 PM 40.2431 -106.8575 83° East 511 588 33,500 -2,081 Descending Denver Center
Sat 12:46:02 PM 40.2578 -106.6831 84° East 504 580 31,200 -1,500 Descending Denver Center
Sat 12:47:04 PM 40.2747 -106.4811 84° East 502 578 30,400 -1,392 Descending Denver Center
Sat 12:48:07 PM 40.2881 -106.3136 84° East 487 560 28,300 -2,064 Descending Denver Center
Sat 12:49:09 PM 40.3008 -106.1414 84° East 472 543 26,100 -2,129 Descending Denver Center
Sat 12:50:11 PM 40.3161 -105.9742 83° East 459 528 23,900 -2,032 Descending Denver Center
Sat 12:51:13 PM 40.3281 -105.8108 84° East 447 514 21,900 -2,129 Descending Denver Center
Sat 12:52:15 PM 40.3414 -105.6267 85° East 434 499 19,500 -1,935 Descending Denver Center
Sat 12:53:17 PM 40.3528 -105.4761 84° East 415 478 17,900 -1,355 Descending Denver Center
Sat 12:54:19 PM 40.3417 -105.3275 96° East 399 459 16,700 -1,403 Descending Denver Center
Sat 12:55:21 PM 40.3228 -105.1944 101° East 371 427 15,000 -1,500 Descending Denver Center
Sat 12:56:23 PM 40.3044 -105.0733 101° East 344 396 13,600 -968 Descending Denver Center
Sat 12:57:25 PM 40.2611 -104.9697 119° Southeast 302 348 13,000 -339 Descending Denver Center
Sat 12:58:27 PM 40.2178 -104.8747 121° Southeast 302 348 12,900 -919 Descending Denver Center
Sat 12:59:29 PM 40.1606 -104.7950 133° Southeast 283 326 11,100 -1,355 Descending Denver Center
Sat 01:00:31 PM 40.0903 -104.7575 158° South 270 311 10,100 -1,161 Descending Denver Center
Sat 01:01:33 PM 40.0322 -104.7253 157° South 223 257 8,700 -1,355 Descending Denver Center

Login

Don't have an account? Register now (free) for customized features, flight alerts, and more!